Estación Meteorológica Peña el Pijo (Robertgarden) [ 07/21/18 15:55:12 CEST ]

Fecha Hora Presion(HPa) Temp (°C) Humedad % Rocio (°C) Viento ( m/s) Direccion Lluvia 1Hora(mm) Lluvia 24H(mm) LLuvia Total(mm)
2018-May-17 01:01:53 1007.700 7.4 63 0.8         215.48
2018-May-17 02:01:52 1007.400 6.1 69 0.9         215.48
2018-May-17 03:01:41 1007.600 7.1 73 2.6         215.48
2018-May-17 04:01:42 1006.900 8.6 69 3.2         215.48
2018-May-17 05:05:10 1006.600 8.1 70 3.0         215.48
2018-May-17 06:01:41 1006.300 8.6 71 3.6         215.48
2018-May-17 07:01:38 1006.200 7.7 72 3.0         215.48
2018-May-17 08:01:38 1006.400 8.5 76 4.5         215.48
2018-May-17 09:01:46 1006.500 13.6 65 7.1         215.48
2018-May-17 10:01:38 1006.700 15.4 54 6.1         215.48
2018-May-17 11:01:32 1006.400 18.3 45 6.1         215.48
2018-May-17 12:01:35 1006.800 19.0 38 4.3         215.48
2018-May-17 13:01:55 1007.100 19.2 38 4.5 0.9 NE     215.48
2018-May-17 14:01:48 1006.900 18.6 40 4.7 1.9 S     215.48
2018-May-17 15:02:07 1006.500 20.9 36 5.2         215.48
2018-May-17 16:01:57 1006.400 18.8 38 4.1 2.6 SSW     215.48
2018-May-17 17:01:36 1006.400 19.0 39 4.7         215.48
2018-May-17 18:01:58 1006.500 19.5 39 5.1         215.48
2018-May-17 19:01:43 1006.400 18.9 38 4.2         215.48
2018-May-17 20:01:40 1006.400 17.4 40 3.7         215.48
2018-May-17 21:01:52 1006.800 14.9 50 4.6         215.48
2018-May-17 22:01:59 1007.300 12.7 59 4.9         215.48
2018-May-17 23:01:52 1007.800 10.4 66 4.3         215.48

Temperatura Máxima:20°    Temperatura Mínima:
Presión Máxima:1007.800 Hpa    Presión Mínima:1006.200 Hpa


Volver